Time;durP1;ratioP1;P1;durP2;ratioP2;P2;SDS_P1;SDS_P2;PMS_P1;PMS_P2;Temp;Humidity;BMP_temperature;BMP_pressure;BME280_temperature;BME280_humidity;BME280_pressure;Samples;Min_cycle;Max_cycle;Signal;HPM_P1;HPM_P2
2023/08/10 00:00:08;;;;;;;0.95;0.88;;;;;;;;;;5118824;28;20203;-66
2023/08/10 00:02:37;;;;;;;0.80;0.75;;;;;;;;;;5118341;28;20218;-66
2023/08/10 00:05:05;;;;;;;0.70;0.70;;;;;;;;;;5118728;28;20571;-66
2023/08/10 00:07:34;;;;;;;0.98;0.80;;;;;;;;;;5119117;28;20234;-66
2023/08/10 00:10:02;;;;;;;1.30;0.70;;;;;;;;;;5118968;28;20224;-66
2023/08/10 00:12:30;;;;;;;1.80;0.88;;;;;;;;;;5119225;28;20202;-66
2023/08/10 00:14:57;;;;;;;0.70;0.65;;;;;;;;;;5118714;28;20203;-66
2023/08/10 00:17:25;;;;;;;1.20;0.80;;;;;;;;;;5118905;28;20211;-66
2023/08/10 00:19:54;;;;;;;1.67;0.88;;;;;;;;;;5119086;28;20207;-66
2023/08/10 00:22:21;;;;;;;1.05;0.70;;;;;;;;;;5118914;28;20210;-66
2023/08/10 00:24:49;;;;;;;0.98;0.80;;;;;;;;;;5118589;28;20597;-66
2023/08/10 00:27:17;;;;;;;1.45;0.80;;;;;;;;;;5118826;28;20305;-66
2023/08/10 00:29:45;;;;;;;1.05;0.88;;;;;;;;;;5119212;28;20203;-65
2023/08/10 00:32:13;;;;;;;1.33;0.80;;;;;;;;;;5118511;28;20209;-66
2023/08/10 00:34:41;;;;;;;0.90;0.90;;;;;;;;;;5119033;28;20574;-66
2023/08/10 00:37:10;;;;;;;1.00;0.90;;;;;;;;;;5118232;28;20210;-66
2023/08/10 00:39:38;;;;;;;0.90;0.90;;;;;;;;;;5118185;28;20202;-65
2023/08/10 00:42:06;;;;;;;1.95;0.93;;;;;;;;;;5118123;28;20218;-65
2023/08/10 00:44:33;;;;;;;1.00;0.90;;;;;;;;;;5118412;28;20203;-65
2023/08/10 00:47:01;;;;;;;1.20;0.80;;;;;;;;;;5118393;28;20203;-66
2023/08/10 00:49:29;;;;;;;1.30;0.90;;;;;;;;;;5118837;28;20227;-66
2023/08/10 00:51:56;;;;;;;1.48;0.90;;;;;;;;;;5118131;28;20237;-66
2023/08/10 00:54:25;;;;;;;0.98;0.98;;;;;;;;;;5118167;28;20209;-66
2023/08/10 00:56:53;;;;;;;2.08;1.00;;;;;;;;;;5118315;28;20567;-65
2023/08/10 00:59:20;;;;;;;0.90;0.90;;;;;;;;;;5118200;28;20281;-65
2023/08/10 01:01:48;;;;;;;1.27;0.95;;;;;;;;;;5118663;28;20203;-65
2023/08/10 01:04:16;;;;;;;1.92;1.05;;;;;;;;;;5118671;28;20252;-66
2023/08/10 01:06:46;;;;;;;1.13;0.90;;;;;;;;;;5118210;28;20494;-66
2023/08/10 01:09:19;;;;;;;1.70;0.80;;;;;;;;;;5117366;28;20233;-66
2023/08/10 01:11:50;;;;;;;1.55;0.90;;;;;;;;;;5117654;28;20206;-65
2023/08/10 01:14:21;;;;;;;1.42;0.90;;;;;;;;;;5117830;28;20209;-66
2023/08/10 01:16:52;;;;;;;0.88;0.88;;;;;;;;;;5117834;28;20260;-66
2023/08/10 01:19:25;;;;;;;0.85;0.80;;;;;;;;;;5118043;28;20209;-65
2023/08/10 01:21:55;;;;;;;0.80;0.80;;;;;;;;;;5117926;28;20478;-65
2023/08/10 01:24:27;;;;;;;0.98;0.88;;;;;;;;;;5117723;28;20207;-65
2023/08/10 01:26:56;;;;;;;1.85;0.90;;;;;;;;;;5118012;28;20214;-65
2023/08/10 01:29:25;;;;;;;1.17;0.80;;;;;;;;;;5117530;28;20504;-66
2023/08/10 01:31:52;;;;;;;0.88;0.77;;;;;;;;;;5117720;28;20210;-66
2023/08/10 01:34:20;;;;;;;0.80;0.73;;;;;;;;;;5117842;28;20211;-66
2023/08/10 01:36:47;;;;;;;0.80;0.80;;;;;;;;;;5117764;28;20574;-66
2023/08/10 01:39:15;;;;;;;0.95;0.80;;;;;;;;;;5117876;28;20206;-66
2023/08/10 01:41:43;;;;;;;0.85;0.85;;;;;;;;;;5117976;28;20203;-66
2023/08/10 01:44:12;;;;;;;0.95;0.88;;;;;;;;;;5117260;28;20586;-66
2023/08/10 01:46:41;;;;;;;2.15;0.82;;;;;;;;;;5117659;28;20210;-66
2023/08/10 01:49:11;;;;;;;0.90;0.80;;;;;;;;;;5117624;28;20254;-65
2023/08/10 01:51:40;;;;;;;0.70;0.70;;;;;;;;;;5117195;28;20269;-66
2023/08/10 01:54:08;;;;;;;0.70;0.70;;;;;;;;;;5117751;28;20221;-65
2023/08/10 01:56:36;;;;;;;0.65;0.65;;;;;;;;;;5117465;28;20653;-65
2023/08/10 01:59:04;;;;;;;0.98;0.80;;;;;;;;;;5117597;28;20475;-65
2023/08/10 02:01:33;;;;;;;0.88;0.88;;;;;;;;;;5116710;28;20282;-66
2023/08/10 02:04:00;;;;;;;0.70;0.70;;;;;;;;;;5116457;28;20203;-66
2023/08/10 02:06:28;;;;;;;1.10;0.70;;;;;;;;;;5116790;28;20591;-66
2023/08/10 02:08:56;;;;;;;0.80;0.80;;;;;;;;;;5117047;28;20226;-66
2023/08/10 02:11:24;;;;;;;0.80;0.80;;;;;;;;;;5117264;28;20210;-66
2023/08/10 02:13:51;;;;;;;1.00;0.90;;;;;;;;;;5117735;28;20203;-66
2023/08/10 02:16:19;;;;;;;1.00;0.90;;;;;;;;;;5117430;28;20264;-65
2023/08/10 02:18:48;;;;;;;0.80;0.80;;;;;;;;;;5117911;28;20482;-65
2023/08/10 02:21:15;;;;;;;1.25;1.00;;;;;;;;;;5116721;28;20207;-66
2023/08/10 02:23:43;;;;;;;1.80;1.02;;;;;;;;;;5119489;28;20209;-66
2023/08/10 02:26:11;;;;;;;0.90;0.90;;;;;;;;;;5121046;28;20598;-66
2023/08/10 02:28:39;;;;;;;0.98;0.98;;;;;;;;;;5120995;28;20291;-66
2023/08/10 02:31:07;;;;;;;0.85;0.80;;;;;;;;;;5121411;28;20213;-66
2023/08/10 02:33:35;;;;;;;0.80;0.80;;;;;;;;;;5120870;28;20570;-66
2023/08/10 02:36:04;;;;;;;0.80;0.80;;;;;;;;;;5121098;28;20567;-65
2023/08/10 02:38:32;;;;;;;0.90;0.73;;;;;;;;;;5121621;28;20627;-65
2023/08/10 02:40:59;;;;;;;1.23;0.80;;;;;;;;;;5120794;28;20203;-66
2023/08/10 02:43:27;;;;;;;2.22;0.80;;;;;;;;;;5121017;28;20313;-66
2023/08/10 02:45:54;;;;;;;1.00;0.90;;;;;;;;;;5120333;28;20264;-66
2023/08/10 02:48:22;;;;;;;0.80;0.80;;;;;;;;;;5120133;28;20310;-66
2023/08/10 02:50:50;;;;;;;1.10;0.90;;;;;;;;;;5120198;28;20194;-65
2023/08/10 02:53:19;;;;;;;0.80;0.80;;;;;;;;;;5120544;28;20552;-65
2023/08/10 02:55:46;;;;;;;0.80;0.80;;;;;;;;;;5120416;28;20302;-66
2023/08/10 02:58:14;;;;;;;1.48;0.80;;;;;;;;;;5120434;28;20198;-65
2023/08/10 03:00:42;;;;;;;0.80;0.80;;;;;;;;;;5120354;28;20203;-66
2023/08/10 03:03:09;;;;;;;0.93;0.90;;;;;;;;;;5120767;28;20302;-66
2023/08/10 03:05:37;;;;;;;0.77;0.77;;;;;;;;;;5120572;28;20213;-66
2023/08/10 03:08:05;;;;;;;1.40;0.80;;;;;;;;;;5121002;28;20202;-66
2023/08/10 03:10:34;;;;;;;1.02;0.80;;;;;;;;;;5120325;28;20207;-66
2023/08/10 03:13:02;;;;;;;0.88;0.88;;;;;;;;;;5120439;28;20258;-65
2023/08/10 03:15:29;;;;;;;1.40;0.77;;;;;;;;;;5119972;28;20202;-66
2023/08/10 03:17:57;;;;;;;1.80;0.95;;;;;;;;;;5119586;28;20301;-66
2023/08/10 03:20:25;;;;;;;1.17;0.70;;;;;;;;;;5120378;28;20203;-66
2023/08/10 03:22:53;;;;;;;0.90;0.80;;;;;;;;;;5120271;28;20203;-66
2023/08/10 03:25:20;;;;;;;2.65;0.90;;;;;;;;;;5120086;28;20203;-65
2023/08/10 03:27:49;;;;;;;1.38;0.70;;;;;;;;;;5119663;28;20203;-65
2023/08/10 03:30:17;;;;;;;0.75;0.75;;;;;;;;;;5119770;28;20288;-66
2023/08/10 03:32:45;;;;;;;1.15;0.95;;;;;;;;;;5119815;28;20202;-65
2023/08/10 03:35:13;;;;;;;1.33;0.80;;;;;;;;;;5119364;28;20532;-66
2023/08/10 03:37:40;;;;;;;0.73;0.73;;;;;;;;;;5119986;28;20263;-66
2023/08/10 03:40:09;;;;;;;1.35;0.82;;;;;;;;;;5119213;28;20203;-66
2023/08/10 03:42:36;;;;;;;0.80;0.80;;;;;;;;;;5119225;28;20207;-66
2023/08/10 03:45:07;;;;;;;1.05;0.80;;;;;;;;;;5119136;28;20206;-65
2023/08/10 03:47:34;;;;;;;0.80;0.80;;;;;;;;;;5119371;28;20294;-66
2023/08/10 03:50:02;;;;;;;0.95;0.90;;;;;;;;;;5118300;28;20619;-66
2023/08/10 03:52:30;;;;;;;1.00;0.80;;;;;;;;;;5118566;28;20528;-66
2023/08/10 03:54:57;;;;;;;0.88;0.73;;;;;;;;;;5118705;28;20207;-65
2023/08/10 03:57:25;;;;;;;0.88;0.80;;;;;;;;;;5118491;28;20213;-66
2023/08/10 03:59:53;;;;;;;0.90;0.85;;;;;;;;;;5118457;28;20214;-65
2023/08/10 04:02:22;;;;;;;1.90;0.80;;;;;;;;;;5118536;28;20220;-65
2023/08/10 04:04:49;;;;;;;1.45;0.80;;;;;;;;;;5118582;28;20207;-66
2023/08/10 04:07:17;;;;;;;1.13;1.02;;;;;;;;;;5119201;28;20218;-65
2023/08/10 04:09:47;;;;;;;0.90;0.90;;;;;;;;;;5118426;28;20258;-65
2023/08/10 04:12:15;;;;;;;0.82;0.82;;;;;;;;;;5118707;28;20203;-66
2023/08/10 04:14:42;;;;;;;0.73;0.73;;;;;;;;;;5118600;28;20207;-66
2023/08/10 04:17:10;;;;;;;0.98;0.80;;;;;;;;;;5118670;28;20500;-65
2023/08/10 04:19:38;;;;;;;0.80;0.80;;;;;;;;;;5118626;28;20229;-66
2023/08/10 04:22:06;;;;;;;0.73;0.73;;;;;;;;;;5118413;28;20203;-65
2023/08/10 04:24:33;;;;;;;0.90;0.90;;;;;;;;;;5118393;28;20264;-65
2023/08/10 04:27:01;;;;;;;1.30;0.80;;;;;;;;;;5118139;28;20568;-65
2023/08/10 04:29:29;;;;;;;1.00;0.70;;;;;;;;;;5117661;28;20250;-65
2023/08/10 04:31:56;;;;;;;1.00;0.88;;;;;;;;;;5116723;28;20468;-65
2023/08/10 04:34:24;;;;;;;0.75;0.75;;;;;;;;;;5117698;28;20214;-65
2023/08/10 04:36:54;;;;;;;0.95;0.73;;;;;;;;;;5117581;28;20202;-65
2023/08/10 04:39:21;;;;;;;2.35;0.70;;;;;;;;;;5117490;28;20614;-65
2023/08/10 04:41:48;;;;;;;0.95;0.88;;;;;;;;;;5117727;28;20297;-65
2023/08/10 04:44:16;;;;;;;1.20;0.80;;;;;;;;;;5117936;28;20203;-65
2023/08/10 04:46:43;;;;;;;0.95;0.80;;;;;;;;;;5116219;28;20246;-65
2023/08/10 04:49:10;;;;;;;1.40;0.80;;;;;;;;;;5117200;28;20681;-65
2023/08/10 04:51:38;;;;;;;0.80;0.80;;;;;;;;;;5116951;28;20305;-66
2023/08/10 04:54:08;;;;;;;0.82;0.82;;;;;;;;;;5117499;28;20248;-66
2023/08/10 04:56:36;;;;;;;0.88;0.85;;;;;;;;;;5117944;28;20229;-65
2023/08/10 04:59:04;;;;;;;1.70;0.85;;;;;;;;;;5117231;28;20209;-65
2023/08/10 05:01:31;;;;;;;2.55;0.90;;;;;;;;;;5117037;28;20566;-65
2023/08/10 05:03:59;;;;;;;0.70;0.70;;;;;;;;;;5117456;28;20214;-66
2023/08/10 05:06:26;;;;;;;1.00;0.88;;;;;;;;;;5117327;28;20203;-66
2023/08/10 05:08:54;;;;;;;0.80;0.80;;;;;;;;;;5116339;28;20284;-66
2023/08/10 05:11:23;;;;;;;0.80;0.80;;;;;;;;;;5116880;28;20562;-65
2023/08/10 05:13:50;;;;;;;1.10;0.80;;;;;;;;;;5116951;28;20203;-65
2023/08/10 05:16:17;;;;;;;0.82;0.82;;;;;;;;;;5116046;28;20203;-65
2023/08/10 05:18:45;;;;;;;1.10;0.85;;;;;;;;;;5116619;28;20203;-65
2023/08/10 05:21:12;;;;;;;0.90;0.80;;;;;;;;;;5117541;28;20547;-65
2023/08/10 05:23:40;;;;;;;1.00;0.90;;;;;;;;;;5116926;28;20293;-65
2023/08/10 05:26:08;;;;;;;0.77;0.77;;;;;;;;;;5116785;28;20291;-65
2023/08/10 05:28:37;;;;;;;1.25;0.82;;;;;;;;;;5116491;28;20202;-69
2023/08/10 05:31:04;;;;;;;0.70;0.70;;;;;;;;;;5115726;28;20205;-65
2023/08/10 05:33:32;;;;;;;0.88;0.80;;;;;;;;;;5115643;28;20203;-65
2023/08/10 05:35:59;;;;;;;1.00;1.00;;;;;;;;;;5116758;28;20664;-65
2023/08/10 05:38:27;;;;;;;0.80;0.80;;;;;;;;;;5116031;28;20202;-65
2023/08/10 05:40:55;;;;;;;1.00;1.00;;;;;;;;;;5115993;28;20230;-67
2023/08/10 05:43:23;;;;;;;1.65;1.02;;;;;;;;;;5116017;28;20453;-66
2023/08/10 05:45:52;;;;;;;1.00;0.90;;;;;;;;;;5116708;28;20217;-65
2023/08/10 05:48:20;;;;;;;0.80;0.80;;;;;;;;;;5115536;28;20605;-65
2023/08/10 05:50:47;;;;;;;1.10;1.00;;;;;;;;;;5115943;28;20279;-65
2023/08/10 05:53:15;;;;;;;1.30;1.10;;;;;;;;;;5115636;28;20329;-65
2023/08/10 05:55:42;;;;;;;0.80;0.73;;;;;;;;;;5116185;28;20232;-65
2023/08/10 05:58:10;;;;;;;1.10;1.00;;;;;;;;;;5120353;28;20566;-66
2023/08/10 06:00:37;;;;;;;1.27;1.08;;;;;;;;;;5121465;28;20222;-65
2023/08/10 06:03:07;;;;;;;1.05;1.00;;;;;;;;;;5119712;28;20203;-66
2023/08/10 06:05:35;;;;;;;1.10;1.00;;;;;;;;;;5120361;28;20199;-66
2023/08/10 06:08:02;;;;;;;1.25;0.93;;;;;;;;;;5119971;28;20217;-65
2023/08/10 06:10:30;;;;;;;1.38;0.90;;;;;;;;;;5120356;28;20730;-65
2023/08/10 06:12:57;;;;;;;0.90;0.90;;;;;;;;;;5120565;28;20285;-65
2023/08/10 06:15:25;;;;;;;1.45;0.90;;;;;;;;;;5120717;28;20294;-66
2023/08/10 06:17:52;;;;;;;0.90;0.90;;;;;;;;;;5120271;28;20202;-66
2023/08/10 06:20:22;;;;;;;1.02;0.90;;;;;;;;;;5120510;28;20230;-66
2023/08/10 06:22:50;;;;;;;1.10;0.80;;;;;;;;;;5120400;28;20210;-66
2023/08/10 06:25:17;;;;;;;0.80;0.80;;;;;;;;;;5120126;28;20660;-66
2023/08/10 06:27:47;;;;;;;1.00;1.00;;;;;;;;;;5120017;28;20202;-66
2023/08/10 06:30:15;;;;;;;0.98;0.98;;;;;;;;;;5119697;28;20218;-66
2023/08/10 06:32:42;;;;;;;0.80;0.80;;;;;;;;;;5119028;28;20203;-66
2023/08/10 06:35:10;;;;;;;1.00;0.93;;;;;;;;;;5119287;28;20532;-66
2023/08/10 06:37:39;;;;;;;1.00;1.00;;;;;;;;;;5118604;28;20207;-67
2023/08/10 06:40:08;;;;;;;1.02;0.90;;;;;;;;;;5118592;28;20633;-66
2023/08/10 06:42:36;;;;;;;1.05;0.85;;;;;;;;;;5119144;28;20203;-66
2023/08/10 06:45:05;;;;;;;0.95;0.90;;;;;;;;;;5119035;28;20203;-66
2023/08/10 06:47:32;;;;;;;1.00;0.90;;;;;;;;;;5118334;28;20203;-66
2023/08/10 06:50:00;;;;;;;1.33;0.90;;;;;;;;;;5118888;28;20321;-66
2023/08/10 06:52:27;;;;;;;0.85;0.85;;;;;;;;;;5119130;28;20516;-66
2023/08/10 06:54:56;;;;;;;1.33;0.90;;;;;;;;;;5118598;28;20297;-66
2023/08/10 06:57:23;;;;;;;0.80;0.80;;;;;;;;;;5118502;28;20221;-66
2023/08/10 06:59:51;;;;;;;1.10;0.90;;;;;;;;;;5117808;28;20199;-66
2023/08/10 07:02:18;;;;;;;0.90;0.80;;;;;;;;;;5117505;28;20213;-66
2023/08/10 07:04:46;;;;;;;1.30;0.82;;;;;;;;;;5117307;28;20198;-66
2023/08/10 07:07:14;;;;;;;1.17;0.98;;;;;;;;;;5118573;28;20202;-66
2023/08/10 07:09:42;;;;;;;0.80;0.80;;;;;;;;;;5117605;28;20227;-66
2023/08/10 07:12:11;;;;;;;0.90;0.90;;;;;;;;;;5118375;28;20286;-66
2023/08/10 07:14:38;;;;;;;0.80;0.80;;;;;;;;;;5118464;28;20573;-66
2023/08/10 07:17:05;;;;;;;1.08;0.98;;;;;;;;;;5117450;28;20242;-66
2023/08/10 07:19:33;;;;;;;0.88;0.80;;;;;;;;;;5117148;28;20206;-66
2023/08/10 07:22:00;;;;;;;1.13;0.93;;;;;;;;;;5116201;28;20238;-66
2023/08/10 07:24:28;;;;;;;0.70;0.70;;;;;;;;;;5117440;28;20264;-66
2023/08/10 07:26:56;;;;;;;1.00;0.80;;;;;;;;;;5117762;28;20249;-66
2023/08/10 07:29:25;;;;;;;0.80;0.80;;;;;;;;;;5117488;28;20203;-66
2023/08/10 07:31:53;;;;;;;1.55;0.80;;;;;;;;;;5118520;28;20214;-66
2023/08/10 07:34:20;;;;;;;0.98;0.88;;;;;;;;;;5116627;28;20207;-65
2023/08/10 07:36:48;;;;;;;0.75;0.70;;;;;;;;;;5116464;28;20205;-65
2023/08/10 07:39:16;;;;;;;0.70;0.70;;;;;;;;;;5116730;28;20211;-66
2023/08/10 07:41:43;;;;;;;0.70;0.70;;;;;;;;;;5117458;28;20646;-66
2023/08/10 07:44:11;;;;;;;0.70;0.60;;;;;;;;;;5117560;28;20207;-66
2023/08/10 07:46:39;;;;;;;0.85;0.80;;;;;;;;;;5116521;28;20210;-66
2023/08/10 07:49:07;;;;;;;0.77;0.70;;;;;;;;;;5117654;28;20213;-66
2023/08/10 07:51:34;;;;;;;0.75;0.73;;;;;;;;;;5117147;28;20266;-66
2023/08/10 07:54:02;;;;;;;0.95;0.85;;;;;;;;;;5117508;28;20348;-65
2023/08/10 07:56:29;;;;;;;1.00;0.65;;;;;;;;;;5115871;28;20202;-65
2023/08/10 07:58:56;;;;;;;0.77;0.77;;;;;;;;;;5115250;28;20268;-65
2023/08/10 08:01:24;;;;;;;1.25;1.15;;;;;;;;;;5117395;28;20202;-66
2023/08/10 08:03:53;;;;;;;0.65;0.65;;;;;;;;;;5116184;28;20201;-65
2023/08/10 08:06:20;;;;;;;0.75;0.75;;;;;;;;;;5116486;28;20234;-65
2023/08/10 08:08:48;;;;;;;0.98;0.90;;;;;;;;;;5116188;28;20294;-65
2023/08/10 08:11:15;;;;;;;1.27;1.10;;;;;;;;;;5115593;28;20326;-66
2023/08/10 08:13:43;;;;;;;1.65;1.00;;;;;;;;;;5116624;28;20210;-65
2023/08/10 08:16:11;;;;;;;5.75;1.05;;;;;;;;;;5115762;28;20576;-65
2023/08/10 08:18:46;;;;;;;1.00;0.93;;;;;;;;;;5116004;28;20549;-66
2023/08/10 08:21:15;;;;;;;1.00;1.00;;;;;;;;;;5116219;28;20310;-65
2023/08/10 08:23:43;;;;;;;2.15;1.10;;;;;;;;;;5115656;28;20242;-65
2023/08/10 08:26:11;;;;;;;1.08;0.98;;;;;;;;;;5116371;28;20232;-66
2023/08/10 08:28:38;;;;;;;0.75;0.75;;;;;;;;;;5115903;28;20229;-66
2023/08/10 08:31:06;;;;;;;1.55;0.80;;;;;;;;;;5115853;28;20223;-65
2023/08/10 08:33:35;;;;;;;1.75;1.05;;;;;;;;;;5115644;28;20293;-65
2023/08/10 08:36:03;;;;;;;1.25;1.13;;;;;;;;;;5115241;28;20203;-65
2023/08/10 08:38:32;;;;;;;0.93;0.90;;;;;;;;;;5115900;28;20693;-65
2023/08/10 08:41:00;;;;;;;1.30;1.10;;;;;;;;;;5116056;28;20589;-65
2023/08/10 08:43:27;;;;;;;1.08;0.98;;;;;;;;;;5115857;28;20205;-65
2023/08/10 08:45:55;;;;;;;2.45;1.30;;;;;;;;;;5116068;28;20286;-65
2023/08/10 08:48:22;;;;;;;1.10;1.00;;;;;;;;;;5114852;28;20294;-65
2023/08/10 08:50:50;;;;;;;1.20;0.90;;;;;;;;;;5115551;28;20223;-65
2023/08/10 08:53:17;;;;;;;1.30;1.20;;;;;;;;;;5117026;28;20231;-65
2023/08/10 08:55:47;;;;;;;3.47;1.25;;;;;;;;;;5115445;28;20203;-65
2023/08/10 08:58:16;;;;;;;1.20;1.10;;;;;;;;;;5113621;28;20266;-65
2023/08/10 09:00:47;;;;;;;1.73;1.17;;;;;;;;;;5112762;28;20279;-65
2023/08/10 09:03:15;;;;;;;1.73;1.15;;;;;;;;;;5115216;28;20242;-66
2023/08/10 09:05:42;;;;;;;1.05;0.93;;;;;;;;;;5115776;28;20203;-65
2023/08/10 09:08:10;;;;;;;1.10;0.98;;;;;;;;;;5115158;28;20527;-66
2023/08/10 09:10:38;;;;;;;1.63;1.40;;;;;;;;;;5114585;28;20230;-66
2023/08/10 09:13:13;;;;;;;1.30;1.20;;;;;;;;;;5114248;28;20194;-65
2023/08/10 09:15:41;;;;;;;1.70;1.60;;;;;;;;;;5115469;28;20289;-65
2023/08/10 09:18:08;;;;;;;1.65;1.50;;;;;;;;;;5114729;28;20213;-65
2023/08/10 09:20:36;;;;;;;1.30;1.20;;;;;;;;;;5114711;28;20293;-65
2023/08/10 09:23:03;;;;;;;1.60;1.50;;;;;;;;;;5114132;28;20242;-65
2023/08/10 09:25:37;;;;;;;1.40;1.30;;;;;;;;;;5113066;28;20543;-66
2023/08/10 09:28:09;;;;;;;1.98;1.30;;;;;;;;;;5114436;28;20350;-66
2023/08/10 09:30:38;;;;;;;1.30;1.20;;;;;;;;;;5114154;28;20237;-65
2023/08/10 09:33:05;;;;;;;1.65;1.55;;;;;;;;;;5114020;28;20548;-65
2023/08/10 09:35:33;;;;;;;1.40;1.30;;;;;;;;;;5114432;28;20289;-66
2023/08/10 09:38:02;;;;;;;1.60;1.50;;;;;;;;;;5113985;28;20814;-65
2023/08/10 09:40:30;;;;;;;3.35;1.60;;;;;;;;;;5113510;28;20609;-66
2023/08/10 09:42:58;;;;;;;1.73;1.50;;;;;;;;;;5114529;28;20674;-65
2023/08/10 09:45:25;;;;;;;2.13;1.80;;;;;;;;;;5113697;28;20203;-65
2023/08/10 09:47:55;;;;;;;1.98;1.88;;;;;;;;;;5113919;28;20289;-65
2023/08/10 09:50:23;;;;;;;3.20;1.90;;;;;;;;;;5114799;28;20229;-65
2023/08/10 09:52:52;;;;;;;1.85;1.65;;;;;;;;;;5113375;28;20363;-66
2023/08/10 09:55:20;;;;;;;2.00;1.90;;;;;;;;;;5113225;28;20234;-65
2023/08/10 09:57:47;;;;;;;1.75;1.63;;;;;;;;;;5114145;28;20244;-65
2023/08/10 10:00:18;;;;;;;1.95;1.50;;;;;;;;;;5113881;28;20203;-66
2023/08/10 10:02:46;;;;;;;1.73;1.55;;;;;;;;;;5113827;28;20663;-65
2023/08/10 10:05:16;;;;;;;2.13;1.90;;;;;;;;;;5113371;28;20264;-65
2023/08/10 10:07:45;;;;;;;3.78;1.75;;;;;;;;;;5114056;28;20203;-66
2023/08/10 10:10:15;;;;;;;1.77;1.67;;;;;;;;;;5113332;28;20211;-65
2023/08/10 10:12:44;;;;;;;2.00;1.70;;;;;;;;;;5113077;28;20253;-66
2023/08/10 10:15:12;;;;;;;2.17;1.73;;;;;;;;;;5112594;28;20236;-65
2023/08/10 10:17:40;;;;;;;2.38;1.77;;;;;;;;;;5112998;28;20210;-65
2023/08/10 10:20:11;;;;;;;1.90;1.80;;;;;;;;;;5112872;28;20691;-65
2023/08/10 10:22:40;;;;;;;1.67;1.58;;;;;;;;;;5112760;28;20308;-65
2023/08/10 10:25:15;;;;;;;1.88;1.77;;;;;;;;;;5112633;28;20222;-66
2023/08/10 10:27:42;;;;;;;2.75;2.08;;;;;;;;;;5111898;28;20702;-66
2023/08/10 10:30:16;;;;;;;2.85;2.05;;;;;;;;;;5112342;28;20714;-66
2023/08/10 10:32:47;;;;;;;2.38;2.17;;;;;;;;;;5113015;28;20207;-66
2023/08/10 10:35:16;;;;;;;2.28;2.08;;;;;;;;;;5112860;28;20203;-66
2023/08/10 10:37:54;;;;;;;2.65;2.15;;;;;;;;;;5111590;28;20215;-66
2023/08/10 10:40:23;;;;;;;2.70;2.10;;;;;;;;;;5113298;28;20225;-66
2023/08/10 10:43:06;;;;;;;2.20;2.00;;;;;;;;;;5113421;28;20442;-66
2023/08/10 10:45:36;;;;;;;3.55;2.30;;;;;;;;;;5116444;28;20293;-66
2023/08/10 10:48:04;;;;;;;2.88;1.98;;;;;;;;;;5117130;28;20515;-66
2023/08/10 10:50:32;;;;;;;2.53;2.33;;;;;;;;;;5117674;28;20302;-66
2023/08/10 10:53:02;;;;;;;3.13;2.13;;;;;;;;;;5116710;28;20641;-66
2023/08/10 10:55:30;;;;;;;2.30;2.10;;;;;;;;;;5117631;28;20211;-66
2023/08/10 10:57:58;;;;;;;2.20;2.10;;;;;;;;;;5116156;28;20246;-66
2023/08/10 11:00:25;;;;;;;2.47;2.30;;;;;;;;;;5116627;28;20214;-66
2023/08/10 11:02:53;;;;;;;2.20;2.10;;;;;;;;;;5117085;28;20195;-66
2023/08/10 11:05:21;;;;;;;2.10;1.95;;;;;;;;;;5116619;28;20647;-66
2023/08/10 11:07:50;;;;;;;2.20;2.10;;;;;;;;;;5117233;28;20198;-66
2023/08/10 11:10:22;;;;;;;2.40;2.20;;;;;;;;;;5116283;28;20195;-66
2023/08/10 11:12:50;;;;;;;2.47;2.28;;;;;;;;;;5117189;28;20758;-66
2023/08/10 11:15:18;;;;;;;2.45;2.25;;;;;;;;;;5117823;28;20260;-66
2023/08/10 11:17:49;;;;;;;2.42;2.22;;;;;;;;;;5117009;28;20203;-66
2023/08/10 11:20:18;;;;;;;2.47;2.28;;;;;;;;;;5117430;28;20214;-66
2023/08/10 11:22:46;;;;;;;2.42;2.22;;;;;;;;;;5117143;28;20191;-66
2023/08/10 11:25:15;;;;;;;2.45;2.25;;;;;;;;;;5116611;28;20211;-66
2023/08/10 11:27:44;;;;;;;2.60;2.40;;;;;;;;;;5116406;28;20211;-66
2023/08/10 11:30:13;;;;;;;2.30;1.90;;;;;;;;;;5115154;28;20288;-66
2023/08/10 11:32:41;;;;;;;2.50;2.30;;;;;;;;;;5114982;28;20235;-66
2023/08/10 11:35:09;;;;;;;2.22;2.03;;;;;;;;;;5115616;28;20199;-66
2023/08/10 11:37:38;;;;;;;2.60;2.40;;;;;;;;;;5115928;28;20211;-67
2023/08/10 11:40:06;;;;;;;2.42;2.22;;;;;;;;;;5115234;28;20213;-66
2023/08/10 11:42:36;;;;;;;2.50;2.30;;;;;;;;;;5115177;28;20539;-66
2023/08/10 11:45:09;;;;;;;2.22;2.03;;;;;;;;;;5115849;28;20198;-66
2023/08/10 11:47:40;;;;;;;2.65;2.45;;;;;;;;;;5115545;28;20194;-67
2023/08/10 11:50:10;;;;;;;2.25;2.15;;;;;;;;;;5115422;28;20206;-66
2023/08/10 11:52:37;;;;;;;2.50;2.28;;;;;;;;;;5114393;28;20342;-66
2023/08/10 11:55:12;;;;;;;2.38;2.28;;;;;;;;;;5114749;28;20211;-66
2023/08/10 11:57:40;;;;;;;2.50;2.28;;;;;;;;;;5114850;28;20203;-66
2023/08/10 12:00:26;;;;;;;2.60;2.40;;;;;;;;;;5115373;28;20282;-65
2023/08/10 12:03:06;;;;;;;2.83;2.15;;;;;;;;;;5115620;28;20566;-66
2023/08/10 12:05:36;;;;;;;2.33;2.13;;;;;;;;;;5115195;28;20206;-66
2023/08/10 12:08:05;;;;;;;2.97;2.42;;;;;;;;;;5113853;28;20199;-66
2023/08/10 12:10:36;;;;;;;2.60;2.40;;;;;;;;;;5114998;28;20203;-66
2023/08/10 12:13:04;;;;;;;2.38;2.22;;;;;;;;;;5114145;28;20230;-66
2023/08/10 12:15:36;;;;;;;2.38;2.25;;;;;;;;;;5115689;28;20295;-66
2023/08/10 12:18:03;;;;;;;2.70;2.50;;;;;;;;;;5115237;28;20683;-66
2023/08/10 12:20:31;;;;;;;2.80;2.60;;;;;;;;;;5114582;28;20496;-66
2023/08/10 12:22:58;;;;;;;3.17;2.20;;;;;;;;;;5114345;28;20198;-66
2023/08/10 12:25:26;;;;;;;2.55;2.33;;;;;;;;;;5114988;28;20203;-67
2023/08/10 12:27:53;;;;;;;2.60;2.40;;;;;;;;;;5113502;28;20273;-66
2023/08/10 12:30:21;;;;;;;2.60;2.40;;;;;;;;;;5114551;28;20209;-66
2023/08/10 12:32:50;;;;;;;2.38;2.20;;;;;;;;;;5114548;28;20237;-66
2023/08/10 12:35:18;;;;;;;2.85;2.30;;;;;;;;;;5114403;28;20284;-66
2023/08/10 12:37:47;;;;;;;2.60;2.40;;;;;;;;;;5114042;28;20242;-66
2023/08/10 12:40:14;;;;;;;2.60;2.40;;;;;;;;;;5114047;28;20195;-66
2023/08/10 12:42:42;;;;;;;2.90;2.60;;;;;;;;;;5113459;28;20206;-66
2023/08/10 12:45:10;;;;;;;2.60;2.40;;;;;;;;;;5114936;28;20304;-65
2023/08/10 12:47:39;;;;;;;2.40;2.30;;;;;;;;;;5114799;28;20203;-66
2023/08/10 12:50:08;;;;;;;2.78;2.20;;;;;;;;;;5114519;28;20210;-66
2023/08/10 12:52:36;;;;;;;2.70;2.50;;;;;;;;;;5114936;28;20326;-66
2023/08/10 12:55:03;;;;;;;3.42;2.65;;;;;;;;;;5115075;28;20213;-65
2023/08/10 12:57:31;;;;;;;3.60;2.67;;;;;;;;;;5113408;28;20266;-66
2023/08/10 12:59:58;;;;;;;2.50;2.30;;;;;;;;;;5114822;28;20475;-66
2023/08/10 13:02:26;;;;;;;2.83;2.53;;;;;;;;;;5113752;28;20279;-66
2023/08/10 13:04:53;;;;;;;3.85;2.42;;;;;;;;;;5113427;28;20309;-65
2023/08/10 13:07:23;;;;;;;3.13;2.83;;;;;;;;;;5113931;28;20195;-66
2023/08/10 13:09:50;;;;;;;2.60;2.40;;;;;;;;;;5115465;28;20602;-66
2023/08/10 13:12:18;;;;;;;2.47;2.28;;;;;;;;;;5112925;28;20317;-65
2023/08/10 13:14:46;;;;;;;2.70;2.47;;;;;;;;;;5115102;28;20400;-66
2023/08/10 13:17:13;;;;;;;3.17;2.53;;;;;;;;;;5114477;28;20202;-65
2023/08/10 13:19:41;;;;;;;3.28;2.58;;;;;;;;;;5113982;28;20199;-66
2023/08/10 13:22:10;;;;;;;3.47;2.60;;;;;;;;;;5111412;28;20520;-66
2023/08/10 13:24:39;;;;;;;2.50;2.30;;;;;;;;;;5113804;28;20213;-66
2023/08/10 13:27:07;;;;;;;2.67;2.30;;;;;;;;;;5114832;28;20202;-66
2023/08/10 13:29:34;;;;;;;2.45;2.22;;;;;;;;;;5114175;28;20324;-66
2023/08/10 13:32:02;;;;;;;2.60;2.40;;;;;;;;;;5113326;28;20219;-66
2023/08/10 13:34:29;;;;;;;3.40;2.50;;;;;;;;;;5113742;28;20214;-66
2023/08/10 13:36:57;;;;;;;3.08;2.20;;;;;;;;;;5113057;28;20203;-66
2023/08/10 13:39:25;;;;;;;2.60;2.40;;;;;;;;;;5114199;28;20217;-66
2023/08/10 13:41:54;;;;;;;2.40;2.20;;;;;;;;;;5113820;28;20206;-66
2023/08/10 13:44:21;;;;;;;2.50;2.30;;;;;;;;;;5113397;28;20213;-65
2023/08/10 13:46:49;;;;;;;2.40;2.30;;;;;;;;;;5113699;28;20290;-66
2023/08/10 13:49:16;;;;;;;2.42;2.22;;;;;;;;;;5112346;28;20301;-66
2023/08/10 13:51:44;;;;;;;2.67;2.47;;;;;;;;;;5111754;28;20245;-66
2023/08/10 13:54:12;;;;;;;2.50;2.30;;;;;;;;;;5113068;28;20313;-66
2023/08/10 13:56:58;;;;;;;2.50;2.30;;;;;;;;;;5112089;28;20605;-66
2023/08/10 13:59:26;;;;;;;2.40;2.20;;;;;;;;;;5112849;28;20294;-66
2023/08/10 14:01:54;;;;;;;2.47;2.28;;;;;;;;;;5112034;28;20223;-66
2023/08/10 14:04:21;;;;;;;2.50;2.30;;;;;;;;;;5110929;28;20214;-66
2023/08/10 14:06:49;;;;;;;2.30;2.10;;;;;;;;;;5112188;28;20195;-66
2023/08/10 14:09:17;;;;;;;2.72;2.53;;;;;;;;;;5112896;28;20492;-66
2023/08/10 14:11:45;;;;;;;2.40;2.20;;;;;;;;;;5112337;28;20270;-66
2023/08/10 14:14:16;;;;;;;2.50;2.30;;;;;;;;;;5112739;28;20267;-66
2023/08/10 14:16:44;;;;;;;2.45;2.22;;;;;;;;;;5112959;28;20214;-66
2023/08/10 14:19:11;;;;;;;2.45;2.25;;;;;;;;;;5116434;28;20242;-66
2023/08/10 14:21:39;;;;;;;2.45;2.22;;;;;;;;;;5116340;28;20215;-66
2023/08/10 14:24:07;;;;;;;2.33;2.20;;;;;;;;;;5115261;28;20228;-66
2023/08/10 14:26:34;;;;;;;2.25;2.15;;;;;;;;;;5116130;28;20665;-66
2023/08/10 14:29:02;;;;;;;2.40;2.20;;;;;;;;;;5117263;28;20301;-67
2023/08/10 14:31:31;;;;;;;2.70;2.50;;;;;;;;;;5115164;28;20210;-66
2023/08/10 14:33:59;;;;;;;2.38;2.28;;;;;;;;;;5115900;28;20213;-66
2023/08/10 14:36:26;;;;;;;2.50;2.30;;;;;;;;;;5116162;28;20217;-66
2023/08/10 14:38:54;;;;;;;2.58;2.38;;;;;;;;;;5115141;28;20242;-66
2023/08/10 14:41:21;;;;;;;2.22;2.13;;;;;;;;;;5115050;28;20555;-66
2023/08/10 14:43:49;;;;;;;2.25;2.10;;;;;;;;;;5115434;28;20282;-66
2023/08/10 14:46:16;;;;;;;2.78;2.58;;;;;;;;;;5115614;28;20305;-65
2023/08/10 14:48:45;;;;;;;2.33;2.22;;;;;;;;;;5115407;28;20398;-66